Time;durP1;ratioP1;P1;durP2;ratioP2;P2;SDS_P1;SDS_P2;PMS_P1;PMS_P2;Temp;Humidity;BMP_temperature;BMP_pressure;BME280_temperature;BME280_humidity;BME280_pressure;Samples;Min_cycle;Max_cycle;Signal;HPM_P1;HPM_P2
2021/12/01 00:00:47;;;;;;;;;;;22.60;58.10;;;;;;5074348;28;19932;-53
2021/12/01 00:03:15;;;;;;;;;;;22.60;58.00;;;;;;5074553;28;19924;-55
2021/12/01 00:05:43;;;;;;;;;;;22.60;58.10;;;;;;5074864;28;20311;-57
2021/12/01 00:08:10;;;;;;;;;;;22.60;58.10;;;;;;5073603;28;20019;-57
2021/12/01 00:10:38;;;;;;;;;;;22.60;58.10;;;;;;5073327;28;19924;-58
2021/12/01 00:13:06;;;;;;;;;;;22.50;58.00;;;;;;5074460;28;19924;-52
2021/12/01 00:15:33;;;;;;;;;;;22.50;58.00;;;;;;5074341;28;19947;-59
2021/12/01 00:18:00;;;;;;;;;;;22.60;58.00;;;;;;5074337;28;19936;-53
2021/12/01 00:20:27;;;;;;;;;;;22.50;58.00;;;;;;5074045;28;19924;-57
2021/12/01 00:22:55;;;;;;;;;;;22.50;58.00;;;;;;5074138;28;19925;-50
2021/12/01 00:25:23;;;;;;;;;;;22.50;58.00;;;;;;5072900;28;19931;-59
2021/12/01 00:27:51;;;;;;;;;;;22.50;58.00;;;;;;5074523;28;19935;-56
2021/12/01 00:30:18;;;;;;;;;;;22.50;58.10;;;;;;5073942;28;19925;-50
2021/12/01 00:32:46;;;;;;;;;;;22.50;58.00;;;;;;5056194;28;19932;-58
2021/12/01 00:35:13;;;;;;;;;;;22.50;58.10;;;;;;5073777;28;19925;-59
2021/12/01 00:37:41;;;;;;;;;;;22.50;58.10;;;;;;5073698;28;20442;-55
2021/12/01 00:40:09;;;;;;;;;;;22.50;58.10;;;;;;5056105;28;19998;-51
2021/12/01 00:42:37;;;;;;;;;;;22.50;58.10;;;;;;5073315;28;20419;-48
2021/12/01 00:45:11;;;;;;;;;;;22.50;58.10;;;;;;5056013;28;19925;-54
2021/12/01 00:47:49;;;;;;;;;;;22.50;58.20;;;;;;5073765;28;19931;-52
2021/12/01 00:50:21;;;;;;;;;;;22.50;58.20;;;;;;5074056;28;19925;-52
2021/12/01 00:52:48;;;;;;;;;;;22.40;58.20;;;;;;5073536;28;20380;-49
2021/12/01 00:55:15;;;;;;;;;;;22.40;58.20;;;;;;5073872;28;19970;-53
2021/12/01 00:57:42;;;;;;;;;;;22.40;58.20;;;;;;5072609;28;19924;-53
2021/12/01 01:00:09;;;;;;;;;;;22.40;58.30;;;;;;5056204;28;19928;-47
2021/12/01 01:02:37;;;;;;;;;;;22.40;58.30;;;;;;5073823;28;19932;-53
2021/12/01 01:05:05;;;;;;;;;;;22.40;58.30;;;;;;5073538;28;19967;-52
2021/12/01 01:07:33;;;;;;;;;;;22.40;58.30;;;;;;5073411;28;20346;-55
2021/12/01 01:10:06;;;;;;;;;;;22.40;58.30;;;;;;5073499;28;19929;-57
2021/12/01 01:18:08;;;;;;;;;;;22.40;58.50;;;;;;5073447;28;19924;-52
2021/12/01 01:20:35;;;;;;;;;;;22.40;58.40;;;;;;5074290;28;19928;-58
2021/12/01 01:23:03;;;;;;;;;;;22.40;58.40;;;;;;5077542;28;19931;-56
2021/12/01 01:25:31;;;;;;;;;;;22.40;58.50;;;;;;5077679;28;20275;-53
2021/12/01 01:27:58;;;;;;;;;;;22.40;58.50;;;;;;5076628;28;19970;-58
2021/12/01 01:30:25;;;;;;;;;;;22.30;58.40;;;;;;5077600;28;20292;-57
2021/12/01 01:32:52;;;;;;;;;;;22.30;58.40;;;;;;5077215;28;19924;-56
2021/12/01 01:35:19;;;;;;;;;;;22.30;58.40;;;;;;5077110;28;19974;-55
2021/12/01 01:37:46;;;;;;;;;;;22.30;58.40;;;;;;5077328;28;20337;-50
2021/12/01 01:40:13;;;;;;;;;;;22.30;58.40;;;;;;5077388;28;20260;-57
2021/12/01 01:42:40;;;;;;;;;;;22.30;58.40;;;;;;5075925;28;19975;-57
2021/12/01 01:45:07;;;;;;;;;;;22.30;58.40;;;;;;5077271;28;20350;-52
2021/12/01 01:47:35;;;;;;;;;;;22.30;58.40;;;;;;5076935;28;19928;-55
2021/12/01 01:53:07;;;;;;;;;;;22.30;58.40;;;;;;5015286;28;19926;-52
2021/12/01 01:55:35;;;;;;;;;;;22.30;58.40;;;;;;5015182;28;19929;-49
2021/12/01 01:58:02;;;;;;;;;;;22.30;58.40;;;;;;4997747;28;19925;-52
2021/12/01 02:00:29;;;;;;;;;;;22.30;58.40;;;;;;4998780;28;19929;-48
2021/12/01 02:02:59;;;;;;;;;;;22.30;58.50;;;;;;5015169;28;19933;-48
2021/12/01 02:05:26;;;;;;;;;;;22.30;58.40;;;;;;5014890;28;20314;-49
2021/12/01 02:07:53;;;;;;;;;;;22.30;58.40;;;;;;5014877;28;19925;-56
2021/12/01 02:10:21;;;;;;;;;;;22.30;58.40;;;;;;5014772;28;20305;-58
2021/12/01 02:12:48;;;;;;;;;;;22.20;58.30;;;;;;5014107;28;19929;-49
2021/12/01 02:15:16;;;;;;;;;;;22.30;58.40;;;;;;5014837;28;20020;-48
2021/12/01 02:17:43;;;;;;;;;;;22.30;58.40;;;;;;5014659;28;19926;-57
2021/12/01 02:20:11;;;;;;;;;;;22.30;58.40;;;;;;4998460;28;20495;-59
2021/12/01 02:22:38;;;;;;;;;;;22.30;58.40;;;;;;5014410;28;19925;-50
2021/12/01 02:25:05;;;;;;;;;;;22.30;58.30;;;;;;5014500;28;19925;-50
2021/12/01 02:27:32;;;;;;;;;;;22.30;58.30;;;;;;5055382;28;19924;-58
2021/12/01 02:29:59;;;;;;;;;;;22.30;58.30;;;;;;5076169;28;19978;-53
2021/12/01 02:32:26;;;;;;;;;;;22.30;58.40;;;;;;5076077;28;19929;-49
2021/12/01 02:34:53;;;;;;;;;;;22.30;58.30;;;;;;5058612;28;20342;-54
2021/12/01 02:37:21;;;;;;;;;;;22.30;58.40;;;;;;5075882;28;19925;-56
2021/12/01 02:39:50;;;;;;;;;;;22.20;58.30;;;;;;5075935;28;19974;-58
2021/12/01 02:42:20;;;;;;;;;;;22.20;58.30;;;;;;5074782;28;19931;-53
2021/12/01 02:44:48;;;;;;;;;;;22.20;58.90;;;;;;5076181;28;19986;-51
2021/12/01 02:47:15;;;;;;;;;;;22.20;58.40;;;;;;5076132;28;19924;-51
2021/12/01 02:49:42;;;;;;;;;;;22.20;58.40;;;;;;5076084;28;19974;-55
2021/12/01 02:52:09;;;;;;;;;;;22.20;58.40;;;;;;5075713;28;19925;-57
2021/12/01 02:54:36;;;;;;;;;;;22.20;58.40;;;;;;5075831;28;19925;-56
2021/12/01 02:57:03;;;;;;;;;;;22.20;58.40;;;;;;5074602;28;20317;-51
2021/12/01 02:59:30;;;;;;;;;;;22.20;58.40;;;;;;5076214;28;19928;-55
2021/12/01 03:01:58;;;;;;;;;;;22.20;58.30;;;;;;5075539;28;19924;-53
2021/12/01 03:04:26;;;;;;;;;;;22.20;58.30;;;;;;5075493;28;19975;-55
2021/12/01 03:06:53;;;;;;;;;;;22.20;58.30;;;;;;5075456;28;19932;-58
2021/12/01 03:09:20;;;;;;;;;;;22.20;58.30;;;;;;5075291;28;19935;-50
2021/12/01 03:11:49;;;;;;;;;;;22.20;58.30;;;;;;5075617;28;19929;-55
2021/12/01 03:14:17;;;;;;;;;;;22.20;58.30;;;;;;5075111;28;19932;-51
2021/12/01 03:16:45;;;;;;;;;;;22.20;58.30;;;;;;5075495;28;19977;-54
2021/12/01 03:19:12;;;;;;;;;;;22.20;58.30;;;;;;5075201;28;19931;-55
2021/12/01 03:21:40;;;;;;;;;;;22.20;58.20;;;;;;5075155;28;19925;-56
2021/12/01 03:24:07;;;;;;;;;;;22.20;58.30;;;;;;5075246;28;19925;-54
2021/12/01 03:26:35;;;;;;;;;;;22.20;58.30;;;;;;5075370;28;19928;-59
2021/12/01 03:29:03;;;;;;;;;;;22.20;58.30;;;;;;5074504;28;19978;-57
2021/12/01 03:31:30;;;;;;;;;;;22.20;58.20;;;;;;5075292;28;19925;-58
2021/12/01 03:33:57;;;;;;;;;;;22.20;58.30;;;;;;5074896;28;19931;-58
2021/12/01 03:36:24;;;;;;;;;;;22.20;58.30;;;;;;5057449;28;19924;-58
2021/12/01 03:38:51;;;;;;;;;;;22.20;58.20;;;;;;5074996;28;20288;-55
2021/12/01 03:41:18;;;;;;;;;;;22.20;58.20;;;;;;5075058;28;20291;-52
2021/12/01 03:43:46;;;;;;;;;;;22.20;58.20;;;;;;5055314;28;20015;-58
2021/12/01 03:46:13;;;;;;;;;;;22.20;58.20;;;;;;5074653;28;20018;-58
2021/12/01 03:48:40;;;;;;;;;;;22.20;58.20;;;;;;5074922;28;20167;-56
2021/12/01 03:51:07;;;;;;;;;;;22.20;58.20;;;;;;5074575;28;19924;-58
2021/12/01 03:53:34;;;;;;;;;;;22.20;58.20;;;;;;5074344;28;19928;-55
2021/12/01 03:56:01;;;;;;;;;;;22.20;58.20;;;;;;5056975;28;19936;-58
2021/12/01 03:58:28;;;;;;;;;;;22.20;58.90;;;;;;5073210;28;19932;-58
2021/12/01 04:00:55;;;;;;;;;;;22.20;58.20;;;;;;5074690;28;19924;-58
2021/12/01 04:03:22;;;;;;;;;;;22.20;58.20;;;;;;5057011;28;19948;-55
2021/12/01 04:05:49;;;;;;;;;;;22.20;58.20;;;;;;5074309;28;19925;-55
2021/12/01 04:08:16;;;;;;;;;;;22.20;58.20;;;;;;5056893;28;19924;-53
2021/12/01 04:10:43;;;;;;;;;;;22.20;58.20;;;;;;5074190;28;19930;-49
2021/12/01 04:13:10;;;;;;;;;;;22.20;58.20;;;;;;5073083;28;19924;-54
2021/12/01 04:15:38;;;;;;;;;;;22.20;58.20;;;;;;5074033;28;19925;-58
2021/12/01 04:18:05;;;;;;;;;;;22.20;58.20;;;;;;5074080;28;20007;-48
2021/12/01 04:20:32;;;;;;;;;;;22.20;58.20;;;;;;5074050;28;19925;-57
2021/12/01 04:22:59;;;;;;;;;;;22.20;58.20;;;;;;5074325;28;19928;-52
2021/12/01 04:25:26;;;;;;;;;;;22.20;58.20;;;;;;5074229;28;20433;-54
2021/12/01 04:27:53;;;;;;;;;;;22.20;58.20;;;;;;5073093;28;19982;-50
2021/12/01 04:30:23;;;;;;;;;;;22.20;58.20;;;;;;5073896;28;19928;-50
2021/12/01 04:32:51;;;;;;;;;;;22.20;58.20;;;;;;5074212;28;19924;-59
2021/12/01 04:35:20;;;;;;;;;;;22.20;58.20;;;;;;5073864;28;19975;-57
2021/12/01 04:37:48;;;;;;;;;;;22.10;58.10;;;;;;5073908;28;19931;-54
2021/12/01 04:40:16;;;;;;;;;;;22.20;58.20;;;;;;5074129;28;19931;-55
2021/12/01 04:42:43;;;;;;;;;;;22.20;58.20;;;;;;5073771;28;19924;-48
2021/12/01 04:45:14;;;;;;;;;;;22.10;58.10;;;;;;5073219;28;19974;-58
2021/12/01 04:47:43;;;;;;;;;;;22.10;58.10;;;;;;5074071;28;19928;-49
2021/12/01 04:50:12;;;;;;;;;;;22.10;58.10;;;;;;5073973;28;19929;-53
2021/12/01 04:52:39;;;;;;;;;;;22.10;58.10;;;;;;5073805;28;20292;-56
2021/12/01 04:55:06;;;;;;;;;;;22.20;58.80;;;;;;5055916;28;19924;-57
2021/12/01 04:57:33;;;;;;;;;;;22.10;58.10;;;;;;5073739;28;19931;-50
2021/12/01 05:00:00;;;;;;;;;;;22.10;58.10;;;;;;5072619;28;20007;-51
2021/12/01 05:02:27;;;;;;;;;;;22.10;58.10;;;;;;5073624;28;19925;-48
2021/12/01 05:04:54;;;;;;;;;;;22.10;58.10;;;;;;5073545;28;20383;-54
2021/12/01 05:07:23;;;;;;;;;;;22.10;58.10;;;;;;5073764;28;19929;-52
2021/12/01 05:09:50;;;;;;;;;;;22.10;58.10;;;;;;5073870;28;19925;-48
2021/12/01 05:12:17;;;;;;;;;;;22.10;58.20;;;;;;5073516;28;19929;-57
2021/12/01 05:14:44;;;;;;;;;;;22.10;58.20;;;;;;5072591;28;19931;-57
2021/12/01 05:17:11;;;;;;;;;;;22.10;58.10;;;;;;5073684;28;19924;-52
2021/12/01 05:19:37;;;;;;;;;;;22.10;58.20;;;;;;5073451;28;19928;-50
2021/12/01 05:22:05;;;;;;;;;;;22.10;58.10;;;;;;5073410;28;19932;-52
2021/12/01 05:24:32;;;;;;;;;;;22.10;58.10;;;;;;5073142;28;20007;-57
2021/12/01 05:27:00;;;;;;;;;;;22.10;58.10;;;;;;5074190;28;19924;-52
2021/12/01 05:29:27;;;;;;;;;;;22.10;58.10;;;;;;5072212;28;20388;-56
2021/12/01 05:31:54;;;;;;;;;;;22.10;58.10;;;;;;5073312;28;19929;-57
2021/12/01 05:34:22;;;;;;;;;;;22.10;58.10;;;;;;5073516;28;19929;-57
2021/12/01 05:36:49;;;;;;;;;;;22.10;58.10;;;;;;5073187;28;19931;-58
2021/12/01 05:39:17;;;;;;;;;;;22.10;58.10;;;;;;5073428;28;19928;-48
2021/12/01 05:41:44;;;;;;;;;;;22.10;58.20;;;;;;5073204;28;20440;-53
2021/12/01 05:44:11;;;;;;;;;;;22.10;58.10;;;;;;5072206;28;19935;-56
2021/12/01 05:46:38;;;;;;;;;;;22.10;58.10;;;;;;5073508;28;19932;-56
2021/12/01 05:49:05;;;;;;;;;;;22.10;58.10;;;;;;5055433;28;19924;-57
2021/12/01 05:51:32;;;;;;;;;;;22.10;58.10;;;;;;5073092;28;19924;-58
2021/12/01 05:54:00;;;;;;;;;;;22.10;58.10;;;;;;5072899;28;19932;-57
2021/12/01 05:56:27;;;;;;;;;;;22.10;58.10;;;;;;5074394;28;19924;-55
2021/12/01 05:58:54;;;;;;;;;;;22.10;58.10;;;;;;5072100;28;20020;-58
2021/12/01 06:01:22;;;;;;;;;;;22.10;58.10;;;;;;5073012;28;19928;-57
2021/12/01 06:03:49;;;;;;;;;;;22.10;58.10;;;;;;5072991;28;19932;-55
2021/12/01 06:06:16;;;;;;;;;;;22.10;58.10;;;;;;5073355;28;19999;-57
2021/12/01 06:08:43;;;;;;;;;;;22.10;58.10;;;;;;5076739;28;19947;-56
2021/12/01 06:11:10;;;;;;;;;;;22.10;58.00;;;;;;5076534;28;19925;-51
2021/12/01 06:13:37;;;;;;;;;;;22.10;58.00;;;;;;5077013;28;20308;-55
2021/12/01 06:16:04;;;;;;;;;;;22.10;58.00;;;;;;5075338;28;19925;-59
2021/12/01 06:18:32;;;;;;;;;;;22.10;58.00;;;;;;5076646;28;19975;-58
2021/12/01 06:20:59;;;;;;;;;;;22.10;58.00;;;;;;5076290;28;19931;-50
2021/12/01 06:23:26;;;;;;;;;;;22.10;58.00;;;;;;5076106;28;19925;-57
2021/12/01 06:25:53;;;;;;;;;;;22.10;58.00;;;;;;5076554;28;19932;-51
2021/12/01 06:28:20;;;;;;;;;;;22.10;58.00;;;;;;5076453;28;19924;-57
2021/12/01 06:30:47;;;;;;;;;;;22.10;58.00;;;;;;5057771;28;20351;-50
2021/12/01 06:33:14;;;;;;;;;;;22.10;58.00;;;;;;5076094;28;19924;-48
2021/12/01 06:35:47;;;;;;;;;;;22.10;58.00;;;;;;5076372;28;19991;-53
2021/12/01 06:38:15;;;;;;;;;;;22.10;57.90;;;;;;5075847;28;20364;-54
2021/12/01 06:40:42;;;;;;;;;;;22.10;58.00;;;;;;5076253;28;19928;-54
2021/12/01 06:43:09;;;;;;;;;;;22.10;58.00;;;;;;5075928;28;19925;-56
2021/12/01 06:45:36;;;;;;;;;;;22.10;58.00;;;;;;5075301;28;19947;-54
2021/12/01 06:48:03;;;;;;;;;;;22.10;58.00;;;;;;5076385;28;19950;-56
2021/12/01 06:50:30;;;;;;;;;;;22.10;58.00;;;;;;5058293;28;19924;-50
2021/12/01 06:52:57;;;;;;;;;;;22.10;57.90;;;;;;5075869;28;20310;-48
2021/12/01 06:55:24;;;;;;;;;;;22.10;57.90;;;;;;5057922;28;19932;-57
2021/12/01 06:57:51;;;;;;;;;;;22.10;57.90;;;;;;5075552;28;19924;-57
2021/12/01 07:00:19;;;;;;;;;;;22.10;57.90;;;;;;5074333;28;19924;-58
2021/12/01 07:02:46;;;;;;;;;;;22.20;58.00;;;;;;5075493;28;20422;-57
2021/12/01 07:05:13;;;;;;;;;;;22.10;57.90;;;;;;5075497;28;20429;-52
2021/12/01 07:07:40;;;;;;;;;;;22.20;58.00;;;;;;5075400;28;19924;-56
2021/12/01 07:10:09;;;;;;;;;;;22.20;57.90;;;;;;5075285;28;19925;-58
2021/12/01 07:12:36;;;;;;;;;;;22.20;57.90;;;;;;5057953;28;19928;-55
2021/12/01 07:15:04;;;;;;;;;;;22.20;57.90;;;;;;5074553;28;19925;-55
2021/12/01 07:17:31;;;;;;;;;;;22.20;57.90;;;;;;5075031;28;19924;-58
2021/12/01 07:19:58;;;;;;;;;;;22.20;57.90;;;;;;5075175;28;19924;-53
2021/12/01 07:22:25;;;;;;;;;;;22.20;57.90;;;;;;5074945;28;20388;-58
2021/12/01 07:24:52;;;;;;;;;;;22.20;57.90;;;;;;5057335;28;19928;-59
2021/12/01 07:27:19;;;;;;;;;;;22.20;57.80;;;;;;5075865;28;19994;-56
2021/12/01 07:29:46;;;;;;;;;;;22.20;57.80;;;;;;5074072;28;19931;-51
2021/12/01 07:32:13;;;;;;;;;;;22.20;57.80;;;;;;5074868;28;19931;-59
2021/12/01 07:34:43;;;;;;;;;;;22.20;57.80;;;;;;5074901;28;19932;-54
2021/12/01 07:37:14;;;;;;;;;;;22.20;57.80;;;;;;5074640;28;19928;-57
2021/12/01 07:39:42;;;;;;;;;;;22.20;57.80;;;;;;5075100;28;19925;-53
2021/12/01 07:42:09;;;;;;;;;;;22.20;57.70;;;;;;5075273;28;20002;-59
2021/12/01 07:44:36;;;;;;;;;;;22.30;57.80;;;;;;5075747;28;19932;-52
2021/12/01 07:47:03;;;;;;;;;;;22.30;57.70;;;;;;5074103;28;19925;-50
2021/12/01 07:49:30;;;;;;;;;;;22.30;57.70;;;;;;5074528;28;19925;-56
2021/12/01 07:52:00;;;;;;;;;;;22.30;57.70;;;;;;5074749;28;19930;-55
2021/12/01 07:54:27;;;;;;;;;;;22.30;57.70;;;;;;5074644;28;19924;-51
2021/12/01 07:56:54;;;;;;;;;;;22.30;57.60;;;;;;5074232;28;19925;-53
2021/12/01 07:59:21;;;;;;;;;;;22.30;57.60;;;;;;5074753;28;19932;-58
2021/12/01 08:01:48;;;;;;;;;;;22.40;57.70;;;;;;5073635;28;19924;-55
2021/12/01 08:04:15;;;;;;;;;;;22.40;57.70;;;;;;5056727;28;19975;-52
2021/12/01 08:06:43;;;;;;;;;;;22.40;57.60;;;;;;5074278;28;19928;-52
2021/12/01 08:09:11;;;;;;;;;;;22.40;57.60;;;;;;5074133;28;19931;-52
2021/12/01 08:11:38;;;;;;;;;;;22.40;57.60;;;;;;5074158;28;19924;-54
2021/12/01 08:14:06;;;;;;;;;;;22.40;57.60;;;;;;5075221;28;19931;-58
2021/12/01 08:16:37;;;;;;;;;;;22.40;57.60;;;;;;5073597;28;20327;-54
2021/12/01 08:19:04;;;;;;;;;;;22.40;57.60;;;;;;5074394;28;20303;-56
2021/12/01 08:21:32;;;;;;;;;;;22.40;57.60;;;;;;5073990;28;19925;-56
2021/12/01 08:24:10;;;;;;;;;;;22.40;57.50;;;;;;5073793;28;19925;-57
2021/12/01 08:26:37;;;;;;;;;;;22.40;57.60;;;;;;5074110;28;20015;-58
2021/12/01 08:29:05;;;;;;;;;;;22.40;57.50;;;;;;5073886;28;20018;-55
2021/12/01 08:31:32;;;;;;;;;;;22.50;57.50;;;;;;5055137;28;20027;-53
2021/12/01 08:33:59;;;;;;;;;;;22.50;57.50;;;;;;5074101;28;20026;-51
2021/12/01 08:36:26;;;;;;;;;;;22.50;57.40;;;;;;5073748;28;20458;-53
2021/12/01 08:38:53;;;;;;;;;;;22.50;57.40;;;;;;5073657;28;19931;-54
2021/12/01 08:41:20;;;;;;;;;;;22.50;57.40;;;;;;5074109;28;20326;-53
2021/12/01 08:43:47;;;;;;;;;;;22.50;57.30;;;;;;5073745;28;19924;-50
2021/12/01 08:46:15;;;;;;;;;;;22.60;57.40;;;;;;5073386;28;20394;-53
2021/12/01 08:48:42;;;;;;;;;;;22.50;57.30;;;;;;5073960;28;19929;-51
2021/12/01 08:51:09;;;;;;;;;;;22.60;57.30;;;;;;5074591;28;19949;-55
2021/12/01 08:53:40;;;;;;;;;;;22.60;57.30;;;;;;5073376;28;19932;-56
2021/12/01 08:56:07;;;;;;;;;;;22.60;57.20;;;;;;5073677;28;19925;-55
2021/12/01 08:58:35;;;;;;;;;;;22.60;57.20;;;;;;5073293;28;19935;-53
2021/12/01 09:01:02;;;;;;;;;;;22.60;57.20;;;;;;5072946;28;19928;-55
2021/12/01 09:03:29;;;;;;;;;;;22.70;57.20;;;;;;5073684;28;19978;-52
2021/12/01 09:05:56;;;;;;;;;;;22.60;57.10;;;;;;5073739;28;20329;-53
2021/12/01 09:08:24;;;;;;;;;;;22.70;57.10;;;;;;5055731;28;19925;-57
2021/12/01 09:10:52;;;;;;;;;;;22.70;57.00;;;;;;5073473;28;19929;-55
2021/12/01 09:13:20;;;;;;;;;;;22.80;57.10;;;;;;5073535;28;19978;-53
2021/12/01 09:15:48;;;;;;;;;;;22.80;57.10;;;;;;5072566;28;19932;-58
2021/12/01 09:18:15;;;;;;;;;;;22.80;57.00;;;;;;5073508;28;19924;-50
2021/12/01 09:20:42;;;;;;;;;;;22.80;57.00;;;;;;5073264;28;19936;-52
2021/12/01 09:23:09;;;;;;;;;;;22.80;57.00;;;;;;5073032;28;20342;-52
2021/12/01 09:25:36;;;;;;;;;;;22.80;57.00;;;;;;5055541;28;20391;-57
2021/12/01 09:28:13;;;;;;;;;;;22.80;57.00;;;;;;5073584;28;19929;-56
2021/12/01 09:30:40;;;;;;;;;;;22.80;57.00;;;;;;5073549;28;20295;-53
2021/12/01 09:33:07;;;;;;;;;;;22.80;57.00;;;;;;5072007;28;19924;-54
2021/12/01 09:35:34;;;;;;;;;;;22.80;56.90;;;;;;5055565;28;20388;-50
2021/12/01 09:38:02;;;;;;;;;;;22.80;56.90;;;;;;5072999;28;20314;-50
2021/12/01 09:40:29;;;;;;;;;;;22.80;56.90;;;;;;5073165;28;19931;-55
2021/12/01 09:42:56;;;;;;;;;;;22.80;56.90;;;;;;5075794;28;19924;-55
2021/12/01 09:45:25;;;;;;;;;;;22.80;56.90;;;;;;5077148;28;19950;-54
2021/12/01 09:47:53;;;;;;;;;;;22.80;57.00;;;;;;5058364;28;20298;-48
2021/12/01 09:50:20;;;;;;;;;;;22.80;57.00;;;;;;5076822;28;19924;-55
2021/12/01 09:52:47;;;;;;;;;;;22.80;57.00;;;;;;5076800;28;20295;-53
2021/12/01 09:55:16;;;;;;;;;;;22.80;57.00;;;;;;5077449;28;20367;-54
2021/12/01 09:57:55;;;;;;;;;;;22.80;57.00;;;;;;5076548;28;19924;-52
2021/12/01 10:00:22;;;;;;;;;;;22.90;57.00;;;;;;5076865;28;19936;-55
2021/12/01 10:02:49;;;;;;;;;;;22.80;57.00;;;;;;5075970;28;19947;-55
2021/12/01 10:06:01;;;;;;;;;;;22.90;57.00;;;;;;5076515;28;19924;-56
2021/12/01 10:08:28;;;;;;;;;;;22.90;57.00;;;;;;5014644;28;19929;-58
2021/12/01 10:10:56;;;;;;;;;;;22.90;57.00;;;;;;5014768;28;19929;-53
2021/12/01 10:13:33;;;;;;;;;;;22.90;57.00;;;;;;5014933;28;19926;-56
2021/12/01 10:16:02;;;;;;;;;;;22.90;56.90;;;;;;5014557;28;19929;-53
2021/12/01 10:18:34;;;;;;;;;;;22.90;57.00;;;;;;5013267;28;19932;-56
2021/12/01 10:21:03;;;;;;;;;;;22.90;56.90;;;;;;5014569;28;19991;-53
2021/12/01 10:23:30;;;;;;;;;;;22.90;56.90;;;;;;5014436;28;20364;-55
2021/12/01 10:26:05;;;;;;;;;;;23.00;57.00;;;;;;5014425;28;20416;-48
2021/12/01 10:28:37;;;;;;;;;;;22.90;56.90;;;;;;5014337;28;19980;-54
2021/12/01 10:31:08;;;;;;;;;;;23.00;57.00;;;;;;5014360;28;19926;-57
2021/12/01 10:33:35;;;;;;;;;;;23.00;57.00;;;;;;4997870;28;19989;-53
2021/12/01 10:36:04;;;;;;;;;;;22.90;56.90;;;;;;5014308;28;19929;-50
2021/12/01 10:38:35;;;;;;;;;;;23.00;57.00;;;;;;5029417;28;19925;-51
2021/12/01 10:41:03;;;;;;;;;;;23.00;56.90;;;;;;5075942;28;19924;-48
2021/12/01 10:43:35;;;;;;;;;;;23.00;56.90;;;;;;5075941;28;19925;-48
2021/12/01 10:46:08;;;;;;;;;;;23.00;56.90;;;;;;5076101;28;19935;-48
2021/12/01 10:48:36;;;;;;;;;;;23.00;57.50;;;;;;5074871;28;20399;-53
2021/12/01 10:51:04;;;;;;;;;;;23.00;56.90;;;;;;5076047;28;19932;-53
2021/12/01 10:53:31;;;;;;;;;;;23.00;56.90;;;;;;5075104;28;19931;-57
2021/12/01 10:56:03;;;;;;;;;;;23.00;57.00;;;;;;5075747;28;19924;-51
2021/12/01 10:58:40;;;;;;;;;;;23.00;57.00;;;;;;5075715;28;19924;-57
2021/12/01 11:01:25;;;;;;;;;;;23.00;57.00;;;;;;5075991;28;19924;-52
2021/12/01 11:03:53;;;;;;;;;;;23.00;57.00;;;;;;5074738;28;19925;-57
2021/12/01 11:06:21;;;;;;;;;;;23.00;57.00;;;;;;5075846;28;19983;-53
2021/12/01 11:08:57;;;;;;;;;;;23.00;57.20;;;;;;5075309;28;19964;-52
2021/12/01 11:11:44;;;;;;;;;;;23.00;57.00;;;;;;5075777;28;19929;-57
2021/12/01 11:14:40;;;;;;;;;;;23.00;57.00;;;;;;5075607;28;20006;-52
2021/12/01 11:17:12;;;;;;;;;;;23.00;57.10;;;;;;5056834;28;20356;-58
2021/12/01 11:19:39;;;;;;;;;;;23.00;57.10;;;;;;5075272;28;19924;-51
2021/12/01 11:22:25;;;;;;;;;;;23.00;57.10;;;;;;5075207;28;19954;-54
2021/12/01 11:25:12;;;;;;;;;;;23.00;57.10;;;;;;5075080;28;19929;-49
2021/12/01 11:27:39;;;;;;;;;;;23.00;57.10;;;;;;5075010;28;19931;-52
2021/12/01 11:30:06;;;;;;;;;;;23.00;57.20;;;;;;5075033;28;19928;-50
2021/12/01 11:32:33;;;;;;;;;;;23.00;57.20;;;;;;5074121;28;19981;-51
2021/12/01 11:35:00;;;;;;;;;;;23.00;57.20;;;;;;5075187;28;19931;-49
2021/12/01 11:37:28;;;;;;;;;;;23.00;57.20;;;;;;5074808;28;19967;-51
2021/12/01 11:39:56;;;;;;;;;;;23.00;57.20;;;;;;5074787;28;19939;-57
2021/12/01 11:42:24;;;;;;;;;;;23.00;57.80;;;;;;5074948;28;19925;-57
2021/12/01 11:44:54;;;;;;;;;;;23.00;57.20;;;;;;5074936;28;19924;-53
2021/12/01 11:47:21;;;;;;;;;;;23.00;57.20;;;;;;5074051;28;20379;-58
2021/12/01 11:49:50;;;;;;;;;;;23.10;57.30;;;;;;5074946;28;19936;-51
2021/12/01 11:52:21;;;;;;;;;;;23.00;57.20;;;;;;5074801;28;20334;-53
2021/12/01 11:54:48;;;;;;;;;;;23.10;57.40;;;;;;5074568;28;19957;-55
2021/12/01 11:57:16;;;;;;;;;;;23.00;57.30;;;;;;5075247;28;19924;-56
2021/12/01 11:59:44;;;;;;;;;;;23.00;57.30;;;;;;5074613;28;19936;-55
2021/12/01 12:02:17;;;;;;;;;;;23.00;57.30;;;;;;5074432;28;19932;-57
2021/12/01 12:04:46;;;;;;;;;;;23.00;57.30;;;;;;5072487;28;19970;-56
2021/12/01 12:07:16;;;;;;;;;;;23.00;57.40;;;;;;5074122;28;19981;-56
2021/12/01 12:10:10;;;;;;;;;;;23.00;57.40;;;;;;5074626;28;20320;-57
2021/12/01 12:12:55;;;;;;;;;;;23.00;57.40;;;;;;5074185;28;19925;-55
2021/12/01 12:15:37;;;;;;;;;;;23.00;57.40;;;;;;5074406;28;19931;-54
2021/12/01 12:18:05;;;;;;;;;;;23.00;57.40;;;;;;5073688;28;19935;-53
2021/12/01 12:20:42;;;;;;;;;;;23.00;57.50;;;;;;5056433;28;20380;-56
2021/12/01 12:23:11;;;;;;;;;;;23.00;57.50;;;;;;5073913;28;19924;-55
2021/12/01 12:25:52;;;;;;;;;;;23.00;57.50;;;;;;5074322;28;19931;-53
2021/12/01 12:28:32;;;;;;;;;;;23.00;57.50;;;;;;5074084;28;20388;-58
2021/12/01 12:31:04;;;;;;;;;;;23.00;57.50;;;;;;5073935;28;19925;-58
2021/12/01 12:33:38;;;;;;;;;;;23.10;57.60;;;;;;5072848;28;19925;-58
2021/12/01 12:36:09;;;;;;;;;;;23.10;57.50;;;;;;5073967;28;19924;-54
2021/12/01 12:38:37;;;;;;;;;;;23.10;57.50;;;;;;5056505;28;19931;-58
2021/12/01 12:41:12;;;;;;;;;;;23.10;57.60;;;;;;5056134;28;20023;-58
2021/12/01 12:43:40;;;;;;;;;;;23.10;57.50;;;;;;5074139;28;19947;-57
2021/12/01 12:46:17;;;;;;;;;;;23.10;57.70;;;;;;5074106;28;20330;-53
2021/12/01 12:48:48;;;;;;;;;;;23.10;57.60;;;;;;5077602;28;19924;-53
2021/12/01 12:51:18;;;;;;;;;;;23.00;57.50;;;;;;5076667;28;19924;-59
2021/12/01 12:54:08;;;;;;;;;;;23.10;57.70;;;;;;5093740;28;19925;-58
2021/12/01 12:56:36;;;;;;;;;;;23.00;57.60;;;;;;5094219;28;19924;-55
2021/12/01 12:59:22;;;;;;;;;;;23.00;57.60;;;;;;5093535;28;19928;-56
2021/12/01 13:02:09;;;;;;;;;;;23.10;57.70;;;;;;5093779;28;19928;-59
2021/12/01 13:04:51;;;;;;;;;;;23.00;57.60;;;;;;5081075;28;20440;-57
2021/12/01 13:07:44;;;;;;;;;;;23.10;57.70;;;;;;5093680;28;19924;-58
2021/12/01 13:10:11;;;;;;;;;;;23.10;57.70;;;;;;5091080;28;19931;-54
2021/12/01 13:12:46;;;;;;;;;;;23.10;57.70;;;;;;5075832;28;19931;-57
2021/12/01 13:15:22;;;;;;;;;;;23.10;57.70;;;;;;5093694;28;20018;-55
2021/12/01 13:17:50;;;;;;;;;;;23.10;57.70;;;;;;5098048;28;19931;-54
2021/12/01 13:20:18;;;;;;;;;;;23.10;57.70;;;;;;5095180;28;19924;-56
2021/12/01 13:23:04;;;;;;;;;;;23.10;57.70;;;;;;5098087;28;19924;-48
2021/12/01 13:25:32;;;;;;;;;;;23.10;57.70;;;;;;5097972;28;19924;-50
2021/12/01 13:28:03;;;;;;;;;;;23.10;57.70;;;;;;5097920;28;20329;-57
2021/12/01 13:30:31;;;;;;;;;;;23.10;57.70;;;;;;5097664;28;19931;-53
2021/12/01 13:33:12;;;;;;;;;;;23.10;57.70;;;;;;5097786;28;19924;-53
2021/12/01 13:35:40;;;;;;;;;;;23.10;57.70;;;;;;5095209;28;19924;-57
2021/12/01 13:38:08;;;;;;;;;;;23.10;57.70;;;;;;5097258;28;19928;-52
2021/12/01 13:40:37;;;;;;;;;;;23.10;57.60;;;;;;5097422;28;19930;-53
2021/12/01 13:43:20;;;;;;;;;;;23.10;57.60;;;;;;5097384;28;19928;-54
2021/12/01 13:45:54;;;;;;;;;;;23.10;57.60;;;;;;5079689;28;20329;-48
2021/12/01 13:48:21;;;;;;;;;;;23.10;57.60;;;;;;5098111;28;19924;-57
2021/12/01 13:50:48;;;;;;;;;;;23.10;57.60;;;;;;5094915;28;19924;-58
2021/12/01 13:53:15;;;;;;;;;;;23.10;57.70;;;;;;5079087;28;19924;-51
2021/12/01 13:55:42;;;;;;;;;;;23.10;57.70;;;;;;5097454;28;20290;-58
2021/12/01 13:58:09;;;;;;;;;;;23.10;57.70;;;;;;5097016;28;20440;-57
2021/12/01 14:00:43;;;;;;;;;;;23.10;57.70;;;;;;5097265;28;19928;-55
2021/12/01 14:03:14;;;;;;;;;;;23.10;57.80;;;;;;5096998;28;20027;-56
2021/12/01 14:05:47;;;;;;;;;;;23.10;57.80;;;;;;5094239;28;19924;-58
2021/12/01 14:08:15;;;;;;;;;;;23.10;57.80;;;;;;5096731;28;19924;-58
2021/12/01 14:10:43;;;;;;;;;;;23.10;57.80;;;;;;5097142;28;19928;-58
2021/12/01 14:13:10;;;;;;;;;;;23.10;57.90;;;;;;5096797;28;19931;-55
2021/12/01 14:15:39;;;;;;;;;;;23.10;57.90;;;;;;5096777;28;19924;-52
2021/12/01 14:18:07;;;;;;;;;;;23.10;57.90;;;;;;5079019;28;19931;-52
2021/12/01 14:20:34;;;;;;;;;;;23.10;57.90;;;;;;5094117;28;19928;-59
2021/12/01 14:23:01;;;;;;;;;;;23.10;57.90;;;;;;5096757;28;19932;-51
2021/12/01 14:25:30;;;;;;;;;;;23.10;57.90;;;;;;5096561;28;19923;-49
2021/12/01 14:28:13;;;;;;;;;;;23.10;57.90;;;;;;5095707;28;19924;-51
2021/12/01 14:30:44;;;;;;;;;;;23.10;57.90;;;;;;5096766;28;19924;-56
2021/12/01 14:33:15;;;;;;;;;;;23.10;57.90;;;;;;5096958;28;19928;-58
2021/12/01 14:35:42;;;;;;;;;;;23.10;57.90;;;;;;5094705;28;19931;-58